Vista Casco antiguo Xert more information Vista Casco antiguo Xert


Thunder radar more information blitzortung!


Rain radar  rain snow radar


Visita nuestra red de sitios de meteo:

Template documentation
and downloads

El Tiempo en XertWeb Principal

Meteotemplate: El tiempo en XertPlantilla Meteotemplate

Dashboard34: El tiempo en XertPlantilla V34

GraphWeather: El tiempo en XertPlantilla GraphWeather



No se requiere una conciencia particular del clima.    No hay advertencias meteorologicas.

Los terremotos en los últimos 7 días

Los terremotos en los últimos 7 días de la magnitud 2.0 o mayor dentro de 15000 km
Tiempo de actualización = 01-12-2020 09:34

Epicentro Cerca Magnitud Distancia Epicentro Hora local Enlace
4 km SO de Moss Landing, CA 2.4 0095819581 km 160680855901-12-2020 07:42 mapa
2 km E of Magas Arriba, Puerto Rico 2.1 0067836783 km 160680372701-12-2020 06:22 mapa
137 km SSE of McCarthy, Alaska 2.0 0082688268 km 160680352301-12-2020 06:18 mapa
4 km SW of Tallaboa, Puerto Rico 2.5 0067876787 km 160680184701-12-2020 05:50 mapa
12 km N of Pāhala, Hawaii 2.4 01289912899 km 160680079401-12-2020 05:33 mapa
6 km SE of Oso, Washington 2.3 0086188618 km 160680058101-12-2020 05:29 mapa
15 km S de Arvin, CA 2.6 0095479547 km 160679958501-12-2020 05:13 mapa
24 km SE of Susitna North, Alaska 2.0 0082918291 km 160679858301-12-2020 04:56 mapa
10 km SO de Niland, CA 2.3 0095019501 km 160679798601-12-2020 04:46 mapa
29 km SE de Bodie, CA 2.1 0092969296 km 160679728901-12-2020 04:34 mapa
9 km W of Murindó, Colombia 4.2 0084118411 km 160679643501-12-2020 04:20 mapa
51 km SSW of Skwentna, Alaska 2.3 0083828382 km 160679637201-12-2020 04:19 mapa
29 km SE de Bodie, CA 3.1 0092969296 km 160679611201-12-2020 04:15 mapa
5 km ENE of Pāhala, Hawaii 2.1 01290612906 km 160679604901-12-2020 04:14 mapa
8 km NO de Lake Pillsbury, CA 2.1 0094199419 km 160679563601-12-2020 04:07 mapa
36 km NW of Stanley, Idaho 2.6 0085758575 km 160679143201-12-2020 02:57 mapa
5 km ENE de The Geysers, CA 2.0 0094659465 km 160679017201-12-2020 02:36 mapa
3 km SW of Tallaboa, Puerto Rico 2.1 0067856785 km 160678877101-12-2020 02:12 mapa
14 km SSW de Searles Valley, CA 3.1 0094169416 km 160678768901-12-2020 01:54 mapa
5 km SSW of Guánica, Puerto Rico 2.1 0068046804 km 160678608001-12-2020 01:28 mapa
2 km SE of La Parguera, Puerto Rico 2.3 0068116811 km 160678488101-12-2020 01:08 mapa
16 km O de Ukiah, CA 3.3 0094669466 km 160678478001-12-2020 01:06 mapa
15 km NE de Little Lake, CA 2.5 0094059405 km 160678441301-12-2020 01:00 mapa
68 km ENE of Chase, Alaska 2.1 0082038203 km 160678271201-12-2020 00:31 mapa
84 km W of San Antonio de los Cobres, Argentina 4.3 01000210002 km 160678215901-12-2020 00:22 mapa
Rat Islands, Aleutian Islands, Alaska 3.6 0097909790 km 160678136101-12-2020 00:09 mapa
8 km SSE of Guánica, Puerto Rico 2.5 0068026802 km 160677955230-11-2020 23:39 mapa
7 km SW of Guánica, Puerto Rico 2.7 0068086808 km 160677889430-11-2020 23:28 mapa
6 km O de Cobb, CA 2.1 0094619461 km 160677885530-11-2020 23:27 mapa
4 km E of La Parguera, Puerto Rico 2.7 0068086808 km 160677858130-11-2020 23:23 mapa
4 km NE of Medford, Oklahoma 2.0 0080228022 km 160677792630-11-2020 23:12 mapa
11 km SSW de Searles Valley, CA 2.3 0094139413 km 160677748130-11-2020 23:04 mapa
12 km S de Tres Pinos, CA 2.2 0095619561 km 160677743530-11-2020 23:03 mapa
76 km WSW of San Antonio de los Cobres, Argentina 6.3 01000710007 km 160677689930-11-2020 22:54 mapa
88 km SSE of Sovetskaya Gavan’, Russia 6.4 0094109410 km 160677687430-11-2020 22:54 mapa
10 km SSE of Fern Forest, Hawaii 2.1 01287612876 km 160677660730-11-2020 22:50 mapa
9 km NNW of Stanley, Idaho 2.4 0085768576 km 160677480530-11-2020 22:20 mapa
3 km S of Pāhala, Hawaii 2.4 01291312913 km 160677376130-11-2020 22:02 mapa
173 km S of Attu Station, Alaska 4.6 0097849784 km 160677215030-11-2020 21:35 mapa
5 km E of Pāhala, Hawaii 2.1 01290712907 km 160677201830-11-2020 21:33 mapa
1 km ENE of Big Lake, Alaska 2.7 0083498349 km 160677099030-11-2020 21:16 mapa
6 km WSW of Guánica, Puerto Rico 2.0 0068066806 km 160677031830-11-2020 21:05 mapa
33 km SE of Mina, Nevada 2.6 0092389238 km 160676453630-11-2020 19:28 mapa
113 km SSE of Lorengau, Papua New Guinea 4.8 01472114721 km 160676365530-11-2020 19:14 mapa
33 km NNE of Benton, California 2.9 0092669266 km 160676308830-11-2020 19:04 mapa
Southern Alaska 2.4 0086488648 km 160676212030-11-2020 18:48 mapa
2 km ESE of Pāhala, Hawaii 2.0 01290912909 km 160675895330-11-2020 17:55 mapa
67 km NNW of Sinabang, Indonesia 5.0 01029310293 km 160675645230-11-2020 17:14 mapa
12 km S of Guánica, Puerto Rico 2.4 0068086808 km 160675600930-11-2020 17:06 mapa
44 km ESE of Nikolski, Alaska 4.8 0095719571 km 160675560730-11-2020 17:00 mapa
18 km N of Indian Springs, Nevada 2.3 0092189218 km 160675438330-11-2020 16:39 mapa
12 km S of Guánica, Puerto Rico 2.7 0068086808 km 160675435430-11-2020 16:39 mapa
94 km SSE of Punta de Burica, Panama 4.6 0088518851 km 160675417830-11-2020 16:36 mapa
4 km SE of La Parguera, Puerto Rico 2.4 0068116811 km 160675411130-11-2020 16:35 mapa
29 km SSE of Mina, Nevada 2.3 0092399239 km 160675361230-11-2020 16:26 mapa
4 km NE of Eastborough, Kansas 2.3 0079297929 km 160674908630-11-2020 15:11 mapa
4 km SO de Mexicali, B.C., MX 2.1 0095399539 km 160674864830-11-2020 15:04 mapa
71 km S of Kaktovik, Alaska 2.2 0074297429 km 160674836030-11-2020 14:59 mapa
77 km S of Mil’kovo, Russia 4.5 0093009300 km 160674758430-11-2020 14:46 mapa
8 km SSE of Maria Antonia, Puerto Rico 3.0 0068016801 km 160674616330-11-2020 14:22 mapa
10 km NNE of Quinlan, Oklahoma 2.0 0081338133 km 160674476230-11-2020 13:59 mapa
50 km N of Gazli, Uzbekistan 4.7 0052235223 km 160674470630-11-2020 13:58 mapa
16 km ENE of Ḩamāh, Syria 4.4 0032583258 km 160674402430-11-2020 13:47 mapa
Puerto Rico region 2.9 0068066806 km 160674338430-11-2020 13:36 mapa
22 km WNW of Stanley, Idaho 2.2 0085838583 km 160674179230-11-2020 13:09 mapa
62 km SSW of Jurm, Afghanistan 4.1 0059855985 km 160673955730-11-2020 12:32 mapa
5 km SW of Volcano, Hawaii 3.2 01288012880 km 160673796730-11-2020 12:06 mapa
5 km SW of Volcano, Hawaii 2.1 01288012880 km 160673759930-11-2020 11:59 mapa
4 km SW of Guánica, Puerto Rico 2.3 0068056805 km 160673758230-11-2020 11:59 mapa
28 km SSE of Mina, Nevada 3.0 0092439243 km 160673708330-11-2020 11:51 mapa
29 km SSE of Denali National Park, Alaska 2.3 0081988198 km 160673699730-11-2020 11:49 mapa
16 km WSW of Las Salinas, Dominican Republic 4.6 0071697169 km 160673476130-11-2020 11:12 mapa
70 km SW of Kaktovik, Alaska 3.1 0074357435 km 160673474030-11-2020 11:12 mapa
33 km NE of Benton, California 2.6 0092659265 km 160673421230-11-2020 11:03 mapa
19 km S of Pa‘auilo, Hawaii 2.8 01283712837 km 160673411530-11-2020 11:01 mapa
42 km SSE of Circle, Alaska 2.6 0078267826 km 160673392630-11-2020 10:58 mapa
109 km E of Circle, Alaska 2.3 0077277727 km 160673323630-11-2020 10:47 mapa
33 km NE of Benton, California 3.0 0092659265 km 160673192630-11-2020 10:25 mapa
64 km NNE of Karluk, Alaska 2.4 0087878787 km 160673002330-11-2020 09:53 mapa
14 km SW of Healy, Alaska 2.0 0081058105 km 160672968230-11-2020 09:48 mapa
Puerto Rico region 2.6 0068086808 km 160672854730-11-2020 09:29 mapa
3 km S of Pāhala, Hawaii 2.1 01291212912 km 160672622430-11-2020 08:50 mapa
6 km S of Maria Antonia, Puerto Rico 2.3 0068016801 km 160672620530-11-2020 08:50 mapa
0 km NW of Guayanilla, Puerto Rico 2.1 0067876787 km 160672549630-11-2020 08:38 mapa
15 km NNW of Stanley, Idaho 2.7 0085738573 km 160672189430-11-2020 07:38 mapa
6 km WSW of Guánica, Puerto Rico 2.1 0068066806 km 160672055630-11-2020 07:15 mapa
3 km SW of Indios, Puerto Rico 3.0 0067946794 km 160671784930-11-2020 06:30 mapa
35 km SE of Seldovia, Alaska 2.1 0086118611 km 160671693830-11-2020 06:15 mapa
105 km NNE of Calama, Chile 4.4 0098949894 km 160671632830-11-2020 06:05 mapa
1 km ENE of Indios, Puerto Rico 2.3 0067896789 km 160671608130-11-2020 06:01 mapa
15 km NNW of Stanley, Idaho 2.8 0085728572 km 160671513130-11-2020 05:45 mapa
1 km SE of Guánica, Puerto Rico 2.2 0068006800 km 160671285030-11-2020 05:07 mapa
40 km SE of Nikolski, Alaska 5.5 0095869586 km 160671234930-11-2020 04:59 mapa
12 km SO de Toms Place, CA 2.7 0093449344 km 160671204630-11-2020 04:54 mapa
5 km SW of Volcano, Hawaii 2.1 01288012880 km 160671099330-11-2020 04:36 mapa
59 km NNE of Karluk, Alaska 2.8 0087928792 km 160671014830-11-2020 04:22 mapa
21 km SSE of Guánica, Puerto Rico 2.2 0068066806 km 160671014430-11-2020 04:22 mapa
21 km NW of Stanley, Idaho 2.8 0085818581 km 160670705930-11-2020 03:30 mapa
8 km SW of Volcano, Hawaii 2.0 01288312883 km 160670517430-11-2020 02:59 mapa
Central Alaska 2.1 0083468346 km 160670426330-11-2020 02:44 mapa
6 km SSE of Indios, Puerto Rico 2.1 0067936793 km 160670405330-11-2020 02:40 mapa
6 km WSW of Guánica, Puerto Rico 2.5 0068066806 km 160670245830-11-2020 02:14 mapa
7 km SW of Volcano, Hawaii 2.1 01288212882 km 160670162930-11-2020 02:00 mapa
7 km SSE of Fern Forest, Hawaii 2.3 01287612876 km 160670137930-11-2020 01:56 mapa
18 km E of Honaunau-Napoopoo, Hawaii 2.9 01289212892 km 160669987330-11-2020 01:31 mapa
1 km NNW of Guayanilla, Puerto Rico 2.1 0067866786 km 160669881730-11-2020 01:13 mapa
88 km SSE of Ugashik, Alaska 2.8 0089888988 km 160669799230-11-2020 00:59 mapa
42 km ESE of Nelson Lagoon, Alaska 3.6 0091419141 km 160669785430-11-2020 00:57 mapa
1 km SSE of Guánica, Puerto Rico 2.3 0068006800 km 160669653630-11-2020 00:35 mapa
34 km NW of Stanley, Idaho 2.3 0085748574 km 160669596630-11-2020 00:26 mapa
15 km NNW of Stanley, Idaho 2.7 0085748574 km 160669400629-11-2020 23:53 mapa
27 km NW of Stanley, Idaho 2.4 0085798579 km 160669171429-11-2020 23:15 mapa
86 km NE of Punta Cana, Dominican Republic 3.1 0067996799 km 160669161329-11-2020 23:13 mapa
15 km OSO de Searles Valley, CA 3.1 0094179417 km 160668898829-11-2020 22:29 mapa
25 km NW of Stanley, Idaho 2.7 0085818581 km 160668750729-11-2020 22:05 mapa
3 km SW of Guánica, Puerto Rico 2.2 0068036803 km 160668708029-11-2020 21:58 mapa
16 km NNW of Stanley, Idaho 2.6 0085758575 km 160668681229-11-2020 21:53 mapa
85 km W of Salamatof, Alaska 3.1 0085048504 km 160668644429-11-2020 21:47 mapa
26 km E of Pedro Bay, Alaska 2.0 0086018601 km 160668317429-11-2020 20:52 mapa
62 km NW of Rachel, Nevada 2.0 0091529152 km 160668272229-11-2020 20:45 mapa
13 km O de Ludlow, CA 2.0 0094209420 km 160668255029-11-2020 20:42 mapa
3 km SSW of Guánica, Puerto Rico 2.8 0068036803 km 160668216829-11-2020 20:36 mapa
Samar, Philippines 4.9 01182711827 km 160668142929-11-2020 20:23 mapa
Mariana Islands region 4.2 01211012110 km 160668045929-11-2020 20:07 mapa
56 km NNE of Yakutat, Alaska 2.1 0082378237 km 160667987029-11-2020 19:57 mapa
97 km NW of Elfin Cove, Alaska 3.1 0083128312 km 160667894729-11-2020 19:42 mapa
46 km ENE of Pedro Bay, Alaska 2.3 0085838583 km 160667852129-11-2020 19:35 mapa
16 km NNW of Stanley, Idaho 2.5 0085728572 km 160667728929-11-2020 19:14 mapa
102 km NNW of San Antonio, Puerto Rico 2.7 0067576757 km 160667669029-11-2020 19:04 mapa
48 km E of Punta Cana, Dominican Republic 3.3 0068526852 km 160667650029-11-2020 19:01 mapa
4 km SSW of Volcano, Hawaii 2.0 01288012880 km 160667414329-11-2020 18:22 mapa
10 km OSO de Petrolia, CA 2.4 0094239423 km 160667247129-11-2020 17:54 mapa
13 km W of Clam Gulch, Alaska 3.1 0085198519 km 160667173129-11-2020 17:42 mapa
54 km SW of Hughes, Alaska 2.5 0080088008 km 160667146129-11-2020 17:37 mapa
Southwest Indian Ridge 5.0 0099949994 km 160666873829-11-2020 16:52 mapa
34 km E of Humahuaca, Argentina 5.7 0097739773 km 160666804429-11-2020 16:40 mapa
2 km SSW of Guánica, Puerto Rico 2.0 0068036803 km 160666636429-11-2020 16:12 mapa
182 km WSW of Adak, Alaska 4.9 0098239823 km 160666545929-11-2020 15:57 mapa
12 km OSO de Petrolia, CA 3.5 0094259425 km 160666481229-11-2020 15:46 mapa
66 km WNW of Ninilchik, Alaska 2.0 0085368536 km 160666404329-11-2020 15:34 mapa
southern Idaho 2.1 0085778577 km 160666191629-11-2020 14:58 mapa
61 km E of Port Alsworth, Alaska 2.2 0085548554 km 160666181829-11-2020 14:56 mapa
2 km SW of Indios, Puerto Rico 2.2 0067946794 km 160666155229-11-2020 14:52 mapa
110 km SSW of Pagar Alam, Indonesia 4.7 01144711447 km 160666130829-11-2020 14:48 mapa
15 km NW of Pawnee, Oklahoma 2.4 0079957995 km 160666011929-11-2020 14:28 mapa
17 km WNW of Ester, Alaska 2.4 0079747974 km 160665935929-11-2020 14:15 mapa
Rat Islands, Aleutian Islands, Alaska 3.4 0097489748 km 160665905929-11-2020 14:10 mapa
31 km SE of Mina, Nevada 2.0 0092359235 km 160665766529-11-2020 13:47 mapa
67 km ENE of Hualien City, Taiwan 4.9 01065510655 km 160665733429-11-2020 13:42 mapa
69 km SE of Cantwell, Alaska 2.8 0081738173 km 160665718629-11-2020 13:39 mapa
147 km WNW of Haines Junction, Canada 2.1 0081568156 km 160665714129-11-2020 13:39 mapa
12 km SSE of Maria Antonia, Puerto Rico 2.3 0068016801 km 160665552329-11-2020 13:12 mapa
11 km WNW of Cedar City, Utah 2.0 0089878987 km 160665479829-11-2020 12:59 mapa
0 km SE of Guánica, Puerto Rico 2.5 0068006800 km 160665398929-11-2020 12:46 mapa
19 km SSW of Susitna North, Alaska 2.0 0083038303 km 160665381229-11-2020 12:43 mapa
18 km N de New Idria, CA 2.1 0095319531 km 160664782529-11-2020 11:03 mapa
18 km SW of Coyanosa, Texas 2.4 0088178817 km 160664664929-11-2020 10:44 mapa
17 km E of San Ignacio, Peru 4.7 0094599459 km 160664623029-11-2020 10:37 mapa
32 km SE of Mina, Nevada 2.4 0092369236 km 160664421829-11-2020 10:03 mapa
16 km WNW of Stanley, Idaho 2.1 0085828582 km 160664410029-11-2020 10:01 mapa
1 km SSE of Guánica, Puerto Rico 2.2 0068006800 km 160664367129-11-2020 09:54 mapa
22 km WNW of Stanley, Idaho 2.1 0085848584 km 160664278429-11-2020 09:39 mapa
Puerto Rico region 2.3 0068036803 km 160664256429-11-2020 09:36 mapa
20 km WSW of Coyanosa, Texas 3.3 0088188818 km 160664163829-11-2020 09:20 mapa
21 km WNW of Stanley, Idaho 2.5 0085868586 km 160663985729-11-2020 08:50 mapa
66 km E of Port Alsworth, Alaska 2.3 0085508550 km 160663902829-11-2020 08:37 mapa
32 km SE of Mina, Nevada 2.1 0092369236 km 160663783929-11-2020 08:17 mapa
Chiapas, Mexico 4.6 0089708970 km 160663725229-11-2020 08:07 mapa
3 km SSE of Pāhala, Hawaii 2.1 01291212912 km 160663703429-11-2020 08:03 mapa
38 km SSE of Nelchina, Alaska 2.0 0082618261 km 160663660129-11-2020 07:56 mapa
46 km W of Happy Valley, Alaska 2.1 0085598559 km 160663640129-11-2020 07:53 mapa
1 km ESE of Pāhala, Hawaii 2.3 01291012910 km 160663560329-11-2020 07:40 mapa
51 km SSE of Glacier View, Alaska 2.4 0083048304 km 160663488629-11-2020 07:28 mapa
1 km SE of Guánica, Puerto Rico 2.4 0068006800 km 160663324629-11-2020 07:00 mapa
92 km WNW of Yakutat, Alaska 3.4 0083038303 km 160663065029-11-2020 06:17 mapa
117 km NE of Punta Cana, Dominican Republic 3.4 0067736773 km 160662865129-11-2020 05:44 mapa
71 km SSW of Shungnak, Alaska 2.2 0079867986 km 160662811929-11-2020 05:35 mapa
20 km NNW de French Gulch, CA 2.2 0092829282 km 160662763129-11-2020 05:27 mapa
2 km S of Guánica, Puerto Rico 2.0 0068026802 km 160662617629-11-2020 05:02 mapa
5 km E of Pāhala, Hawaii 2.0 01290812908 km 160662577529-11-2020 04:56 mapa
4 km SSE of Pāhala, Hawaii 2.0 01291312913 km 160662536129-11-2020 04:49 mapa
25 km SSW of Gerāsh, Iran 4.9 0050985098 km 160662386829-11-2020 04:24 mapa
27 km E of Skwentna, Alaska 2.1 0083218321 km 160661966529-11-2020 03:14 mapa
48 km NNW of Beluga, Alaska 2.1 0083848384 km 160661641429-11-2020 02:20 mapa
13 km SO de Searles Valley, CA 2.0 0094169416 km 160661516029-11-2020 01:59 mapa
7 km NO de The Geysers, CA 2.2 0094649464 km 160661372129-11-2020 01:35 mapa
29 km NNE of Old Harbor, Alaska 2.2 0088388838 km 160661364129-11-2020 01:34 mapa
27 km WNW of Valdez, Alaska 2.0 0083078307 km 160661209129-11-2020 01:08 mapa
47 km N of Petersville, Alaska 2.0 0082248224 km 160660967729-11-2020 00:27 mapa
3 km S of Pāhala, Hawaii 2.0 01291312913 km 160660818129-11-2020 00:03 mapa
66 km SE of Pope-Vannoy Landing, Alaska 3.4 0086708670 km 160660747028-11-2020 23:51 mapa
3 km ENE de Delta, B.C., MX 2.0 0095429542 km 160660734328-11-2020 23:49 mapa
89 km WSW of Banda Aceh, Indonesia 4.7 0099939993 km 160660725328-11-2020 23:47 mapa
9 km SSE of Maria Antonia, Puerto Rico 2.3 0068026802 km 160660508228-11-2020 23:11 mapa
27 km SE of Adak, Alaska 3.7 0097549754 km 160660417228-11-2020 22:56 mapa
10 km ENE of Pāhala, Hawaii 2.2 01290212902 km 160660397728-11-2020 22:52 mapa
10 km ENE of Pāhala, Hawaii 2.0 01290212902 km 160660321728-11-2020 22:40 mapa
10 km ENE of Pāhala, Hawaii 3.0 01290112901 km 160660167328-11-2020 22:14 mapa
6 km ENE of Pāhala, Hawaii 2.1 01290512905 km 160660155528-11-2020 22:12 mapa
128 km S of Cordova, Alaska 2.5 0084678467 km 160660139328-11-2020 22:09 mapa
4 km SE of Otra Banda, Dominican Republic 3.6 0069026902 km 160660065028-11-2020 21:57 mapa
21 km W of Tatitlek, Alaska 2.5 0083518351 km 160660045328-11-2020 21:54 mapa
30 km SSE of Pelabuhanratu, Indonesia 4.6 01192211922 km 160659767228-11-2020 21:07 mapa
4 km ESE de Los Angeles, CA 2.3 0095949594 km 160659750528-11-2020 21:05 mapa
54 km W of Anchor Point, Alaska 2.1 0085908590 km 160659658828-11-2020 20:49 mapa
44 km ESE of Central, Alaska 2.2 0078337833 km 160659604228-11-2020 20:40 mapa
8 km S of Indios, Puerto Rico 2.1 0067966796 km 160659584028-11-2020 20:37 mapa
16 km NNE of Avon, Montana 2.1 0082498249 km 160659505028-11-2020 20:24 mapa
80 km NE of Lime Village, Alaska 2.0 0083968396 km 160659468428-11-2020 20:18 mapa
Mauritius - Reunion region 5.4 0093679367 km 160659452428-11-2020 20:15 mapa
11 km ESE of Waimea, Hawaii 2.0 01283312833 km 160658991128-11-2020 18:58 mapa
19 km SSW of Susitna North, Alaska 2.1 0083028302 km 160658841428-11-2020 18:33 mapa
20 km ENE of Stanley, Idaho 2.7 0085618561 km 160658817428-11-2020 18:29 mapa
47 km WSW of Cantwell, Alaska 2.6 0081778177 km 160658727828-11-2020 18:14 mapa
Minahasa, Sulawesi, Indonesia 4.6 01246912469 km 160658437028-11-2020 17:26 mapa
101 km SSW of Nikolski, Alaska 4.6 0096659665 km 160658327728-11-2020 17:07 mapa
Hawaii region, Hawaii 2.7 01291612916 km 160658211228-11-2020 16:48 mapa
100 km NW of Yakutat, Alaska 2.0 0082798279 km 160658131728-11-2020 16:35 mapa
1 km SSE of Cidra, Puerto Rico 2.3 0067246724 km 160657732928-11-2020 15:28 mapa
2 km NNE of Big Lake, Alaska 2.0 0083488348 km 160657611428-11-2020 15:08 mapa
36 km NW of Mosquito Lake, Alaska 3.2 0081778177 km 160657472928-11-2020 14:45 mapa
3 km WSW of Guánica, Puerto Rico 2.2 0068036803 km 160657259328-11-2020 14:09 mapa
Island of Hawaii, Hawaii 2.3 01291412914 km 160657082128-11-2020 13:40 mapa
50 km WNW of Nanwalek, Alaska 2.1 0086158615 km 160656753728-11-2020 12:45 mapa
35 km NNE of Benton, California 2.0 0092649264 km 160656565228-11-2020 12:14 mapa
34 km NNE of Benton, California 2.1 0092659265 km 160656534428-11-2020 12:09 mapa
8 km WNW of Point Possession, Alaska 2.5 0084298429 km 160656357628-11-2020 11:39 mapa
108 km SSE of Sand Point, Alaska 3.6 0092779277 km 160656348328-11-2020 11:38 mapa
259 km NW of Tual, Indonesia 4.5 01365913659 km 160656250628-11-2020 11:21 mapa
10 km ENE of Pāhala, Hawaii 2.1 01290212902 km 160656158428-11-2020 11:06 mapa
33 km SE of Mina, Nevada 2.5 0092379237 km 160656154728-11-2020 11:05 mapa
66 km SW of Akhiok, Alaska 3.0 0089748974 km 160655904228-11-2020 10:24 mapa
7 km NE of Pāhala, Hawaii 2.3 01290312903 km 160655822628-11-2020 10:10 mapa
7 km ENE of Pāhala, Hawaii 2.4 01290412904 km 160655800028-11-2020 10:06 mapa
7 km ENE of Pāhala, Hawaii 2.3 01290412904 km 160655792528-11-2020 10:05 mapa
8 km NNE of Sunrise, Alaska 2.2 0083968396 km 160655772728-11-2020 10:02 mapa
23 km WNW of Karluk, Alaska 2.9 0088518851 km 160655458128-11-2020 09:09 mapa
9 km NW of Stanley, Idaho 2.1 0085808580 km 160655013128-11-2020 07:55 mapa
15 km NNW of Stanley, Idaho 2.5 0085738573 km 160655003328-11-2020 07:53 mapa
14 km SSE of Guánica, Puerto Rico 2.2 0068046804 km 160654605428-11-2020 06:47 mapa
75 km SSE of Cantwell, Alaska 2.4 0081878187 km 160654421528-11-2020 06:16 mapa
77 km WSW of Nanwalek, Alaska 2.0 0086598659 km 160653960428-11-2020 05:00 mapa
60 km WNW of Rincón, Puerto Rico 3.2 0068386838 km 160653897728-11-2020 04:49 mapa
6 km WSW of Guánica, Puerto Rico 2.4 0068066806 km 160653764028-11-2020 04:27 mapa
South Sandwich Islands region 5.0 01105011050 km 160653630428-11-2020 04:05 mapa
14 km SW of Volcano, Hawaii 2.2 01289012890 km 160653458728-11-2020 03:36 mapa
20 km NO de Ludlow, CA 2.3 0094129412 km 160653331428-11-2020 03:15 mapa
22 km NO de Ludlow, CA 2.6 0094119411 km 160653330728-11-2020 03:15 mapa
116 km SE of Petropavlovsk-Kamchatsky, Russia 4.4 0095129512 km 160653204428-11-2020 02:54 mapa
79 km O de Vandenberg Air Force Base, CA 2.1 0097369736 km 160652849928-11-2020 01:54 mapa
5 km SSE of Pāhala, Hawaii 2.0 01291412914 km 160652793628-11-2020 01:45 mapa
22 km SO de Lompoc, CA 2.5 0097039703 km 160652596628-11-2020 01:12 mapa
2 km E de Loma Linda, CA 2.9 0095349534 km 160652501628-11-2020 00:56 mapa
6 km NO de The Geysers, CA 2.4 0094649464 km 160652426728-11-2020 00:44 mapa
16 km NNE of Willow, Alaska 2.3 0083138313 km 160652222828-11-2020 00:10 mapa
16 km W of Ashkāsham, Afghanistan 4.0 0060296029 km 160652217028-11-2020 00:09 mapa
western Xizang 4.5 0075367536 km 160652027127-11-2020 23:37 mapa
3 km NE of Pāhala, Hawaii 2.3 01290712907 km 160652009827-11-2020 23:34 mapa
9 km SE of La Parguera, Puerto Rico 2.4 0068116811 km 160651846027-11-2020 23:07 mapa
53 km SSW of Ashkāsham, Afghanistan 3.9 0060516051 km 160651819327-11-2020 23:03 mapa
110 km SE of Petropavlovsk-Kamchatsky, Russia 4.7 0095099509 km 160651783727-11-2020 22:57 mapa
14 km NNW of Stanley, Idaho 3.0 0085758575 km 160651756927-11-2020 22:52 mapa
8 km ENE of Pāhala, Hawaii 2.0 01290312903 km 160651601327-11-2020 22:26 mapa
11 km ESE de Julian, CA 2.8 0095699569 km 160651422327-11-2020 21:57 mapa
18 km SSE de Ocotillo Wells, CA 2.0 0095429542 km 160651241727-11-2020 21:26 mapa
southern Mid-Atlantic Ridge 5.1 0071297129 km 160651085527-11-2020 21:00 mapa
southern Idaho 2.1 0085798579 km 160650297527-11-2020 18:49 mapa
7 km SW of Guánica, Puerto Rico 2.6 0068076807 km 160650295827-11-2020 18:49 mapa
77 km SSE of Severo-Kuril’sk, Russia 5.3 0096839683 km 160650270927-11-2020 18:45 mapa
southeast Indian Ridge 4.5 01385013850 km 160650239827-11-2020 18:39 mapa
52 km E of Saint Croix, U.S. Virgin Islands 4.0 0065996599 km 160650210927-11-2020 18:35 mapa
6 km ESE de Round Valley, CA 2.3 0093389338 km 160650195827-11-2020 18:32 mapa
33 km NW of Stanley, Idaho 2.3 0085748574 km 160650193727-11-2020 18:32 mapa
30 km NW of Nabesna, Alaska 2.3 0080958095 km 160650189027-11-2020 18:31 mapa
3 km NE of Eastborough, Kansas 2.3 0079307930 km 160650165827-11-2020 18:27 mapa
81 km O de Vandenberg Air Force Base, CA 2.2 0097339733 km 160649975627-11-2020 17:55 mapa
6 km S of Houston, Alaska 3.0 0083428342 km 160649966727-11-2020 17:54 mapa
14 km S of Guánica, Puerto Rico 2.7 0068086808 km 160649888927-11-2020 17:41 mapa
60 km SE of Denali National Park, Alaska 2.0 0081968196 km 160649747227-11-2020 17:17 mapa
56 km ESE of Saint Croix, U.S. Virgin Islands 3.6 0066036603 km 160649611227-11-2020 16:55 mapa
5 km WSW of Fuig, Puerto Rico 2.4 0068056805 km 160649584227-11-2020 16:50 mapa
65 km SSW of Shungnak, Alaska 2.6 0079807980 km 160649551527-11-2020 16:45 mapa
107 km NE of Tobelo, Indonesia 4.6 01294412944 km 160649541227-11-2020 16:43 mapa
66 km SSW of Shungnak, Alaska 2.3 0079817981 km 160649484727-11-2020 16:34 mapa
6 km WSW of Guánica, Puerto Rico 2.0 0068066806 km 160649474327-11-2020 16:32 mapa
14 km SSE of Maria Antonia, Puerto Rico 2.9 0068036803 km 160648937527-11-2020 15:02 mapa
33 km NW of Stanley, Idaho 2.4 0085748574 km 160648850927-11-2020 14:48 mapa
6 km SSE of Maria Antonia, Puerto Rico 2.6 0067996799 km 160648704427-11-2020 14:24 mapa
15 km S of Fern Forest, Hawaii 2.4 01288412884 km 160648429427-11-2020 13:38 mapa
139 km NNW of Ambon, Indonesia 4.8 01327413274 km 160648426527-11-2020 13:37 mapa
13 km S of Guánica, Puerto Rico 2.6 0068096809 km 160648245127-11-2020 13:07 mapa
9 km N of Peralta, Dominican Republic 4.2 0070807080 km 160647958227-11-2020 12:19 mapa
16 km N of Hope, Alaska 2.9 0083918391 km 160647947227-11-2020 12:17 mapa
9 km SE of El Guayabal, Dominican Republic 4.2 0070797079 km 160647931327-11-2020 12:15 mapa
Izu Islands, Japan region 4.0 01101211012 km 160647792127-11-2020 11:52 mapa
36 km NNW of Sinabang, Indonesia 4.5 01032310323 km 160647042827-11-2020 09:47 mapa
4 km SW of Guánica, Puerto Rico 2.0 0068056805 km 160647026627-11-2020 09:44 mapa
12 km S of Guánica, Puerto Rico 2.5 0068086808 km 160646845327-11-2020 09:14 mapa
7 km SSW of Tallaboa, Puerto Rico 2.5 0067896789 km 160646615227-11-2020 08:35 mapa
9 km NNW of Sincik, Turkey 4.6 0032923292 km 160646567627-11-2020 08:27 mapa
33 km NNW of Stanley, Idaho 2.5 0085728572 km 160646432627-11-2020 08:05 mapa
49 km S of Cantwell, Alaska 2.0 0081828182 km 160646339027-11-2020 07:49 mapa
14 km NNW of Stanley, Idaho 2.4 0085738573 km 160646278827-11-2020 07:39 mapa
103 km N of Charlotte Amalie, U.S. Virgin Islands 3.4 0065606560 km 160646198227-11-2020 07:26 mapa
259 km SE of Chiniak, Alaska 3.7 0088688868 km 160646099827-11-2020 07:09 mapa
5 km N of Loíza, Puerto Rico 2.0 0066806680 km 160646087027-11-2020 07:07 mapa
15 km NNW of Stanley, Idaho 2.4 0085748574 km 160646038127-11-2020 06:59 mapa
37 km W of Nanwalek, Alaska 2.2 0086248624 km 160645993127-11-2020 06:52 mapa
15 km NNW of Stanley, Idaho 2.0 0085738573 km 160645980927-11-2020 06:50 mapa
Gulf of Aden 4.5 0057305730 km 160645972927-11-2020 06:48 mapa
50 km NW of Beluga, Alaska 2.2 0083978397 km 160645971527-11-2020 06:48 mapa
58 km SW of Kivalina, Alaska 3.3 0079557955 km 160645910627-11-2020 06:38 mapa
29 km NNW of Stanley, Idaho 3.5 0085728572 km 160645774927-11-2020 06:15 mapa
15 km NNW of Stanley, Idaho 2.0 0085748574 km 160645714127-11-2020 06:05 mapa
13 km S of Guánica, Puerto Rico 2.2 0068086808 km 160645666127-11-2020 05:57 mapa
southern Idaho 2.1 0085748574 km 160645647027-11-2020 05:54 mapa
33 km ENE of Cantwell, Alaska 2.0 0081188118 km 160645393827-11-2020 05:12 mapa
14 km SSE de Tres Pinos, CA 2.5 0095609560 km 160645317827-11-2020 04:59 mapa
southern Idaho 2.9 0085748574 km 160645183527-11-2020 04:37 mapa
8 km NO de The Geysers, CA 2.3 0094629462 km 160645127727-11-2020 04:27 mapa
11 km ENE of Pāhala, Hawaii 2.3 01290112901 km 160645040927-11-2020 04:13 mapa
10 km ENE of Pāhala, Hawaii 2.1 01290312903 km 160644962627-11-2020 04:00 mapa
126 km NW of Vallenar, Chile 4.2 01059210592 km 160644952127-11-2020 03:58 mapa
11 km ENE of Pāhala, Hawaii 2.1 01290212902 km 160644925227-11-2020 03:54 mapa
10 km ENE of Pāhala, Hawaii 2.2 01290212902 km 160644576327-11-2020 02:56 mapa
5 km NNE of Anacortes, Washington 2.3 0086258625 km 160644559927-11-2020 02:53 mapa
1 km S of Lumbangan, Philippines 4.5 01139911399 km 160644467327-11-2020 02:37 mapa
10 km ENE of Pāhala, Hawaii 2.2 01290312903 km 160644387927-11-2020 02:24 mapa
224 km E of Port Mathurin, Mauritius 4.7 0094799479 km 160644163827-11-2020 01:47 mapa
19 km WNW of Stanley, Idaho 2.5 0085868586 km 160644161127-11-2020 01:46 mapa
southern Peru 4.0 0097419741 km 160644087627-11-2020 01:34 mapa
1 km ESE of Magas Arriba, Puerto Rico 2.6 0067846784 km 160643862327-11-2020 00:57 mapa
2 km S of Tallaboa, Puerto Rico 2.6 0067846784 km 160643738827-11-2020 00:36 mapa
12 km S of Guánica, Puerto Rico 2.3 0068076807 km 160643512326-11-2020 23:58 mapa
14 km S of Guánica, Puerto Rico 3.1 0068086808 km 160643373326-11-2020 23:35 mapa
3 km SSE of Maria Antonia, Puerto Rico 2.4 0067986798 km 160643325926-11-2020 23:27 mapa
6 km WSW of Guánica, Puerto Rico 2.0 0068066806 km 160643301526-11-2020 23:23 mapa
10 km ENE de Calipatria, CA 2.0 0095029502 km 160643251026-11-2020 23:15 mapa
10 km ENE de Calipatria, CA 2.2 0095019501 km 160643211226-11-2020 23:08 mapa
10 km ENE de Calipatria, CA 3.6 0095029502 km 160643159726-11-2020 22:59 mapa
Virgin Islands region 3.2 0065596559 km 160643001026-11-2020 22:33 mapa
2 km NE of Eastborough, Kansas 2.5 0079317931 km 160642966026-11-2020 22:27 mapa
13 km S of Guánica, Puerto Rico 2.8 0068076807 km 160642861826-11-2020 22:10 mapa
23 km SSE of Al Quţayfah, Syria 4.1 0033133313 km 160642850426-11-2020 22:08 mapa
57 km SSE of Adak, Alaska 4.0 0097889788 km 160642802126-11-2020 22:00 mapa
11 km ENE de Calipatria, CA 2.0 0095029502 km 160642721326-11-2020 21:46 mapa
10 km NO de Calipatria, CA 2.3 0095019501 km 160642714226-11-2020 21:45 mapa
13 km S of Guánica, Puerto Rico 2.5 0068086808 km 160642591926-11-2020 21:25 mapa
14 km S of Fern Forest, Hawaii 3.2 01288312883 km 160642536926-11-2020 21:16 mapa
18 km SSW of Susitna North, Alaska 4.5 0083028302 km 160642513026-11-2020 21:12 mapa
12 km S of Guánica, Puerto Rico 2.8 0068076807 km 160642499326-11-2020 21:09 mapa
19 km S of Volcano, Hawaii 2.4 01289312893 km 160642445326-11-2020 21:00 mapa
15 km S of Guánica, Puerto Rico 3.2 0068096809 km 160642431326-11-2020 20:58 mapa
30 km E of Miyako, Japan 4.5 01030910309 km 160642406726-11-2020 20:54 mapa
14 km S de Arvin, CA 2.9 0095479547 km 160642398526-11-2020 20:53 mapa
4 km W of Orlando, Oklahoma 2.0 0080498049 km 160642240026-11-2020 20:26 mapa
14 km S of Guánica, Puerto Rico 2.2 0068086808 km 160642239926-11-2020 20:26 mapa
10 km SO de Niland, CA 2.0 0095019501 km 160642214126-11-2020 20:22 mapa
11 km S of Guánica, Puerto Rico 2.5 0068066806 km 160642194226-11-2020 20:19 mapa
112 km N of Charlotte Amalie, U.S. Virgin Islands 3.2 0065426542 km 160642188026-11-2020 20:18 mapa
18 km S of Volcano, Hawaii 2.2 01289212892 km 160642161826-11-2020 20:13 mapa
14 km S of Guánica, Puerto Rico 3.5 0068096809 km 160642056826-11-2020 19:56 mapa
9 km NNE of Quinlan, Oklahoma 2.2 0081338133 km 160642009326-11-2020 19:48 mapa
5 km S of Pāhala, Hawaii 2.3 01291412914 km 160641490426-11-2020 18:21 mapa
31 km WSW of Ashkāsham, Afghanistan 4.4 0060276027 km 160641165526-11-2020 17:27 mapa
Southwest Indian Ridge 5.2 01004310043 km 160641022626-11-2020 17:03 mapa
7 km SSE de Littlerock, CA 3.1 0095449544 km 160640955926-11-2020 16:52 mapa
14 km SW of Stanley, Idaho 2.5 0085948594 km 160640870026-11-2020 16:38 mapa
93 km E of Iquique, Chile 4.3 0098339833 km 160640777026-11-2020 16:22 mapa
71 km WNW of Karluk, Alaska 2.0 0088488848 km 160640750926-11-2020 16:18 mapa
Volcano Islands, Japan region 4.8 01203612036 km 160640544226-11-2020 15:44 mapa
44 km WSW of Anchor Point, Alaska 2.1 0085958595 km 160640513426-11-2020 15:38 mapa
3 km SSW of Pāhala, Hawaii 2.1 01291312913 km 160640351626-11-2020 15:11 mapa
64 km W of Nanwalek, Alaska 2.0 0086288628 km 160640226126-11-2020 14:51 mapa
9 km E of Pāhala, Hawaii 2.0 01290412904 km 160640161526-11-2020 14:40 mapa
34 km WSW of Manley Hot Springs, Alaska 2.2 0080318031 km 160640062426-11-2020 14:23 mapa
110 km ESE of Angoram, Papua New Guinea 4.4 01469214692 km 160639503126-11-2020 12:50 mapa
13 km NO de Pinnacles, CA 2.2 0095619561 km 160639334926-11-2020 12:22 mapa
Carlsberg Ridge 4.7 0073007300 km 160639326826-11-2020 12:21 mapa
68 km ESE of Denali National Park, Alaska 2.0 0081868186 km 160639244626-11-2020 12:07 mapa
10 km SSE of Guánica, Puerto Rico 2.7 0068046804 km 160639168426-11-2020 11:54 mapa
45 km WSW of Masachapa, Nicaragua 4.7 0089228922 km 160639150526-11-2020 11:51 mapa
5 km SSE of Maria Antonia, Puerto Rico 2.9 0068006800 km 160638826526-11-2020 10:57 mapa
43 km SSW of Ashkāsham, Afghanistan 4.4 0060436043 km 160638490626-11-2020 10:01 mapa
29 km SE de Bodie, CA 3.3 0092959295 km 160638423026-11-2020 09:50 mapa
10 km W of Lamont, Oklahoma 2.6 0080298029 km 160638296626-11-2020 09:29 mapa
30 km SSE of Mina, Nevada 2.4 0092439243 km 160638231926-11-2020 09:18 mapa
98 km N of Culebra, Puerto Rico 3.4 0065776577 km 160638143526-11-2020 09:03 mapa
30 km NNW of Pante Makasar, Timor Leste 4.5 01350713507 km 160638127426-11-2020 09:01 mapa
6 km SSW de Tres Pinos, CA 2.0 0095579557 km 160638032026-11-2020 08:45 mapa
104 km N of Charlotte Amalie, U.S. Virgin Islands 3.6 0065616561 km 160638004326-11-2020 08:40 mapa
2 km NE of Yauco, Puerto Rico 2.2 0067886788 km 160637832926-11-2020 08:12 mapa
10 km NE of Eagle River, Alaska 2.3 0083538353 km 160637584726-11-2020 07:30 mapa
11 km SSE of Guánica, Puerto Rico 2.2 0068036803 km 160637582226-11-2020 07:30 mapa
30 km S of Akutan, Alaska 3.7 0094339433 km 160637467626-11-2020 07:11 mapa
105 km N of Charlotte Amalie, U.S. Virgin Islands 4.7 0065566556 km 160637446526-11-2020 07:07 mapa
Wyoming 2.2 0082988298 km 160637345426-11-2020 06:50 mapa
4 km ESE of La Parguera, Puerto Rico 2.2 0068106810 km 160637291426-11-2020 06:41 mapa
15 km E of Ferry, Alaska 2.2 0080728072 km 160637233026-11-2020 06:32 mapa
23 km WNW of Mackay, Idaho 2.1 0085368536 km 160637196826-11-2020 06:26 mapa
21 km ESE de Little Lake, CA 2.2 0094119411 km 160636826326-11-2020 05:24 mapa
5 km SSE of Maria Antonia, Puerto Rico 2.4 0068006800 km 160636694526-11-2020 05:02 mapa
101 km SE of Angoram, Papua New Guinea 5.1 01468714687 km 160636575526-11-2020 04:42 mapa
1 km NW of Yauco, Puerto Rico 2.0 0067916791 km 160636405426-11-2020 04:14 mapa
45 km NW of Toyah, Texas 2.5 0088558855 km 160636325126-11-2020 04:00 mapa
111 km SE of Angoram, Papua New Guinea 5.4 01469414694 km 160636246526-11-2020 03:47 mapa
55 km WNW of Salamatof, Alaska 2.3 0084818481 km 160636132726-11-2020 03:28 mapa
12 km WNW of Pāhala, Hawaii 2.7 01291012910 km 160635989226-11-2020 03:04 mapa
3 km SSE of Pāhala, Hawaii 2.0 01291212912 km 160635974526-11-2020 03:02 mapa
20 km SW of Illapel, Chile 4.2 01088110881 km 160635907226-11-2020 02:51 mapa
62 km N of San Antonio, Puerto Rico 2.5 0067516751 km 160635478626-11-2020 01:39 mapa
170 km WSW of Brookings, Oregon 3.0 0094059405 km 160635476826-11-2020 01:39 mapa
3 km E of Maria Antonia, Puerto Rico 2.2 0067956795 km 160635434126-11-2020 01:32 mapa
western Xizang 4.2 0075327532 km 160635333226-11-2020 01:15 mapa
2 km SSE of Maria Antonia, Puerto Rico 2.4 0067986798 km 160635317326-11-2020 01:12 mapa
11 km E of Pāhala, Hawaii 2.0 01290412904 km 160635210726-11-2020 00:55 mapa
44 km E of Yakutat, Alaska 2.3 0082668266 km 160635163026-11-2020 00:47 mapa
8 km ENE of Pāhala, Hawaii 2.1 01290512905 km 160634750825-11-2020 23:38 mapa
South Shetland Islands 4.1 01255212552 km 160634650125-11-2020 23:21 mapa
48 km WNW of Happy Valley, Alaska 2.0 0085558555 km 160634633125-11-2020 23:18 mapa
9 km SSE of Volcano, Hawaii 2.1 01288212882 km 160634632725-11-2020 23:18 mapa
36 km NW of Sérifos, Greece 4.0 0021052105 km 160634429725-11-2020 22:44 mapa
southeast of Easter Island 5.7 01287012870 km 160634386225-11-2020 22:37 mapa
5 km S of Guánica, Puerto Rico 2.9 0068036803 km 160634337425-11-2020 22:29 mapa
111 km NW of Yakutat, Alaska 2.5 0082788278 km 160634265325-11-2020 22:17 mapa
14 km NNW of Stanley, Idaho 2.2 0085758575 km 160634194125-11-2020 22:05 mapa
29 km SE de Bodie, CA 2.2 0092959295 km 160634183825-11-2020 22:03 mapa
33 km SE of Mina, Nevada 2.0 0092359235 km 160633960525-11-2020 21:26 mapa
33 km SE of Mina, Nevada 2.6 0092359235 km 160633955625-11-2020 21:25 mapa
9 km S of Funny River, Alaska 2.0 0084808480 km 160633872325-11-2020 21:12 mapa
155 km NNE of Calama, Chile 4.3 0098609860 km 160633756325-11-2020 20:52 mapa
21 km ENE of Honaunau-Napoopoo, Hawaii 2.2 01288412884 km 160633703525-11-2020 20:43 mapa
89 km S of Serdar, Turkmenistan 4.8 0047374737 km 160633510025-11-2020 20:11 mapa
82 km N of Cruz Bay, U.S. Virgin Islands 3.6 0065406540 km 160633442825-11-2020 20:00 mapa
175 km SW of Nikolski, Alaska 4.4 0096879687 km 160633369725-11-2020 19:48 mapa
83 km NW of San Antonio, Puerto Rico 3.1 0067856785 km 160633327625-11-2020 19:41 mapa
7 km NE de Aguanga, CA 2.8 0095539553 km 160633111125-11-2020 19:05 mapa
11 km NNW of Midland, Texas 2.5 0086698669 km 160633073325-11-2020 18:58 mapa
30 km E of Miches, Dominican Republic 3.8 0068906890 km 160632899625-11-2020 18:29 mapa
8 km ENE of Pāhala, Hawaii 2.1 01290512905 km 160632876225-11-2020 18:26 mapa
21 km ENE of Honaunau-Napoopoo, Hawaii 2.1 01288412884 km 160632873525-11-2020 18:25 mapa
10 km NE de Coso Junction, CA 2.1 0094049404 km 160632834725-11-2020 18:19 mapa
11 km SSW of Leilani Estates, Hawaii 2.1 01287212872 km 160632616925-11-2020 17:42 mapa
16 km S of Volcano, Hawaii 2.3 01289212892 km 160632593825-11-2020 17:38 mapa
12 km SW of Glacier View, Alaska 2.1 0082838283 km 160632362125-11-2020 17:00 mapa
203 km SSE of Katsuura, Japan 4.3 01086610866 km 160632344425-11-2020 16:57 mapa
49 km S of George Town, Cayman Islands 4.4 0079627962 km 160632300125-11-2020 16:50 mapa
50 km NNW of Petersville, Alaska 2.2 0082268226 km 160631963625-11-2020 15:53 mapa
69 km WNW of Tobelo, Indonesia 5.0 01290012900 km 160631763425-11-2020 15:20 mapa
20 km WSW of Coyanosa, Texas 3.0 0088188818 km 160631462925-11-2020 14:30 mapa
15 km NNW of Stanley, Idaho 3.1 0085758575 km 160631274225-11-2020 13:59 mapa
112 km SSW of Kaktovik, Alaska 2.6 0074787478 km 160631185925-11-2020 13:44 mapa
13 km NNW of Stanley, Idaho 3.7 0085758575 km 160631182625-11-2020 13:43 mapa
9 km E of Hebgen Lake Estates, Montana 3.1 0083148314 km 160630910125-11-2020 12:58 mapa
15 km NNW of Stanley, Idaho 2.9 0085758575 km 160630705025-11-2020 12:24 mapa
5 km WSW of Guánica, Puerto Rico 2.1 0068056805 km 160630629925-11-2020 12:11 mapa
90 km NE of Punta Cana, Dominican Republic 3.5 0067956795 km 160630446325-11-2020 11:41 mapa
9 km NNE of Quinlan, Oklahoma 2.0 0081338133 km 160630416425-11-2020 11:36 mapa
40 km SE of Halibut Cove, Alaska 2.7 0085978597 km 160630246625-11-2020 11:07 mapa
4 km WNW of San Javier, Chile 4.6 01120011200 km 160630190425-11-2020 10:58 mapa
5 km SSW of Volcano, Hawaii 2.2 01288112881 km 160630135025-11-2020 10:49 mapa
6 km S of Volcano, Hawaii 2.2 01288212882 km 160630134925-11-2020 10:49 mapa
4 km SE of Maria Antonia, Puerto Rico 2.3 0067976797 km 160630100425-11-2020 10:43 mapa
5 km SSW of Indios, Puerto Rico 3.2 0067966796 km 160630015925-11-2020 10:29 mapa
6 km SW of Volcano, Hawaii 2.0 01288112881 km 160629986625-11-2020 10:24 mapa
9 km E of Bancroft, Idaho 2.5 0085138513 km 160629935325-11-2020 10:15 mapa
41 km N of Petersville, Alaska 2.5 0082328232 km 160629912525-11-2020 10:12 mapa
150 km SW of Padangsidempuan, Indonesia 4.4 01066110661 km 160629905925-11-2020 10:10 mapa
1 km SSW of Guánica, Puerto Rico 2.3 0068016801 km 160629879925-11-2020 10:06 mapa
4 km SSW of Indios, Puerto Rico 2.7 0067956795 km 160629828325-11-2020 09:58 mapa
11 km S of Ames, Oklahoma 2.3 0081038103 km 160629822025-11-2020 09:57 mapa
34 km SE of Mina, Nevada 2.2 0092339233 km 160629815125-11-2020 09:55 mapa
4 km SSE of Pāhala, Hawaii 2.1 01291312913 km 160629775825-11-2020 09:49 mapa
8 km SSE of Volcano, Hawaii 2.6 01288212882 km 160629653725-11-2020 09:28 mapa
8 km NW of Broken Bow, Oklahoma 2.2 0079997999 km 160629600025-11-2020 09:20 mapa
9 km NNE of Quinlan, Oklahoma 2.4 0081338133 km 160629411425-11-2020 08:48 mapa
9 km NNE of Quinlan, Oklahoma 2.5 0081338133 km 160629406025-11-2020 08:47 mapa
9 km NNE of Quinlan, Oklahoma 2.7 0081348134 km 160629405525-11-2020 08:47 mapa
Oklahoma 2.5 0081348134 km 160629405025-11-2020 08:47 mapa
12 km NNW of Midland, Texas 3.3 0086688668 km 160629384125-11-2020 08:44 mapa
9 km SSE of Volcano, Hawaii 2.0 01288112881 km 160629339325-11-2020 08:36 mapa
25 km WNW of Petersville, Alaska 2.4 0082688268 km 160629131325-11-2020 08:01 mapa
8 km ENE of Pāhala, Hawaii 2.0 01290312903 km 160628941325-11-2020 07:30 mapa
8 km ENE of Pāhala, Hawaii 2.0 01290412904 km 160628903125-11-2020 07:23 mapa
7 km ENE of Pāhala, Hawaii 2.6 01290412904 km 160628852725-11-2020 07:15 mapa
8 km ENE of Pāhala, Hawaii 2.6 01290312903 km 160628852125-11-2020 07:15 mapa
56 km ESE of Sand Point, Alaska 4.1 0092059205 km 160628759825-11-2020 06:59 mapa
163 km S of Sofifi, Indonesia 4.4 01314013140 km 160628755325-11-2020 06:59 mapa
2 km NW of Tallaboa, Puerto Rico 2.1 0067836783 km 160628575025-11-2020 06:29 mapa
48 km W of Nikolski, Alaska 2.4 0095779577 km 160628479825-11-2020 06:13 mapa
7 km ESE of La Parguera, Puerto Rico 2.2 0068076807 km 160628260425-11-2020 05:36 mapa
67 km NNE of Petersville, Alaska 2.2 0082008200 km 160628132725-11-2020 05:15 mapa
5 km SSE of Indios, Puerto Rico 2.2 0067926792 km 160628117525-11-2020 05:12 mapa
36 km S of Cantwell, Alaska 3.3 0081748174 km 160627967625-11-2020 04:47 mapa
35 km SE of Mina, Nevada 2.4 0092329232 km 160627797025-11-2020 04:19 mapa
34 km E of Calingasta, Argentina 4.6 01069110691 km 160627709825-11-2020 04:04 mapa
5 km ESE of Pole Ojea, Puerto Rico 2.1 0068206820 km 160627691825-11-2020 04:01 mapa
26 km NW of Stanley, Idaho 2.4 0085838583 km 160627562525-11-2020 03:40 mapa
47 km ENE of Hinatuan, Philippines 4.6 01229612296 km 160627112525-11-2020 02:25 mapa
3 km SSW of Mitsukaidō, Japan 4.3 01056810568 km 160627081825-11-2020 02:20 mapa
9 km E of Hebgen Lake Estates, Montana 2.1 0083158315 km 160627047925-11-2020 02:14 mapa
2 km S of Guánica, Puerto Rico 2.1 0068026802 km 160626955825-11-2020 01:59 mapa
7 km SE of Howell, Utah 2.5 0086228622 km 160626796125-11-2020 01:32 mapa
3 km NNE of Tiquipaya, Bolivia 3.1 0093839383 km 160626718025-11-2020 01:19 mapa
5 km NE of Ames, Oklahoma 2.2 0080908090 km 160626586925-11-2020 00:57 mapa
8 km ENE of Pāhala, Hawaii 2.2 01290412904 km 160626458025-11-2020 00:36 mapa
89 km SSE of Halibut Cove, Alaska 2.6 0086378637 km 160626432125-11-2020 00:32 mapa
13 km ENE of Chenega, Alaska 2.1 0084468446 km 160626335425-11-2020 00:15 mapa
4 km ENE de Fillmore, CA 2.0 0096099609 km 160626274225-11-2020 00:05 mapa
4 km E of Three Rivers, Oregon 2.3 0089648964 km 160626263825-11-2020 00:03 mapa
5 km SSW of Volcano, Hawaii 2.0 01288112881 km 160626240025-11-2020 00:00 mapa
37 km WSW of Clear, Alaska, Alaska 2.0 0080808080 km 160626235824-11-2020 23:59 mapa
3 km S of Guánica, Puerto Rico 2.4 0068026802 km 160626215224-11-2020 23:55 mapa
1 km S of Guánica, Puerto Rico 2.3 0068016801 km 160626159324-11-2020 23:46 mapa
17 km O de Petrolia, CA 2.1 0094269426 km 160626151824-11-2020 23:45 mapa
4 km S of Guánica, Puerto Rico 2.7 0068026802 km 160626120124-11-2020 23:40 mapa
2 km S of Guánica, Puerto Rico 3.1 0068026802 km 160626033324-11-2020 23:25 mapa
21 km WSW of Westport, Oregon 2.0 0088898889 km 160625789224-11-2020 22:44 mapa
5 km SSW of Indios, Puerto Rico 2.4 0067956795 km 160625781524-11-2020 22:43 mapa
15 km S de Arvin, CA 2.3 0095479547 km 160625755024-11-2020 22:39 mapa
6 km SW of Guánica, Puerto Rico 2.3 0068066806 km 160625714224-11-2020 22:32 mapa
153 km NNW of Rosetta, Egypt 4.1 0027702770 km 160625629624-11-2020 22:18 mapa
Izu Islands, Japan region 4.5 01103111031 km 160625625824-11-2020 22:17 mapa
64 km N of Petersville, Alaska 2.4 0082128212 km 160625541924-11-2020 22:03 mapa
Mid-Indian Ridge 5.5 0088118811 km 160625537824-11-2020 22:02 mapa
46 km WNW of Aleneva, Alaska 2.2 0087608760 km 160625424524-11-2020 21:44 mapa
1 km SSW of Guánica, Puerto Rico 2.0 0068026802 km 160625307924-11-2020 21:24 mapa
83 km S of Néa Anatolí, Greece 4.3 0023432343 km 160625307924-11-2020 21:24 mapa
5 km ENE of Weston, Oregon 2.0 0086368636 km 160625266824-11-2020 21:17 mapa
20 km WNW of Stanley, Idaho 2.4 0085888588 km 160625264624-11-2020 21:17 mapa
34 km E of McKinley Park, Alaska 2.2 0080958095 km 160625164324-11-2020 21:00 mapa
11 km SSE of Guánica, Puerto Rico 2.7 0068036803 km 160625133824-11-2020 20:55 mapa
6 km SSW of Guánica, Puerto Rico 2.0 0068066806 km 160624660924-11-2020 19:36 mapa
5 km NE of Ames, Oklahoma 2.3 0080908090 km 160624566624-11-2020 19:21 mapa
29 km S of Knik River, Alaska 2.5 0083628362 km 160624468424-11-2020 19:04 mapa
66 km SSW of Chirilagua, El Salvador 4.9 0089668966 km 160624321424-11-2020 18:40 mapa
9 km NNW of Meadow Lakes, Alaska 2.0 0083278327 km 160624273324-11-2020 18:32 mapa
2 km E of Big Lake, Alaska 2.1 0083508350 km 160624255124-11-2020 18:29 mapa
118 km NNW of Bima, Indonesia 4.4 01291212912 km 160624242124-11-2020 18:27 mapa
2 km SE of Palomas, Puerto Rico 2.3 0067946794 km 160624075724-11-2020 17:59 mapa
6 km S of Big Lake, Alaska 2.2 0083578357 km 160623913624-11-2020 17:32 mapa
5 km NE of Ames, Oklahoma 2.1 0080908090 km 160623861724-11-2020 17:23 mapa
19 km NNE of Chacra, Colorado 2.4 0084668466 km 160623849824-11-2020 17:21 mapa
Volcano Islands, Japan region 5.0 01171311713 km 160623671724-11-2020 16:51 mapa
6 km W of Seward, Alaska 2.6 0084868486 km 160623617424-11-2020 16:42 mapa
29 km ESE of Pedro Bay, Alaska 2.8 0086108610 km 160623528624-11-2020 16:28 mapa
7 km SW of Guánica, Puerto Rico 2.2 0068076807 km 160623479024-11-2020 16:19 mapa
4 km S of Avard, Oklahoma 2.4 0081118111 km 160623298924-11-2020 15:49 mapa
36 km W of Anchor Point, Alaska 2.1 0085878587 km 160623227324-11-2020 15:37 mapa
36 km ESE of Mina, Nevada 2.3 0092249224 km 160622833324-11-2020 14:32 mapa
15 km WSW of Salamatof, Alaska 2.0 0084828482 km 160622817824-11-2020 14:29 mapa
41 km ENE of Hinatuan, Philippines 4.6 01228712287 km 160622744724-11-2020 14:17 mapa
13 km NNW of Piti Village, Guam 4.4 01297312973 km 160622654924-11-2020 14:02 mapa
2 km SSE of Houston, Alaska 2.6 0083388338 km 160622629224-11-2020 13:58 mapa
2 km ESE of Pāhala, Hawaii 2.0 01290912909 km 160622542824-11-2020 13:43 mapa
7 km S of Happy Valley, Alaska 2.2 0085568556 km 160622480924-11-2020 13:33 mapa
Banda Sea 4.4 01379413794 km 160622475224-11-2020 13:32 mapa
8 km E of Bancroft, Idaho 2.4 0085128512 km 160622145124-11-2020 12:37 mapa
11 km NNE of Stanley, Idaho 2.2 0085688568 km 160622007924-11-2020 12:14 mapa
14 km NNE of Fortine, Montana 2.6 0082088208 km 160621988624-11-2020 12:11 mapa
5 km SW of Volcano, Hawaii 2.1 01288112881 km 160621693124-11-2020 11:22 mapa
2 km NNW of Happy Valley, Alaska 2.4 0085478547 km 160621396324-11-2020 10:32 mapa
6 km NNW de Delta, B.C., MX 2.3 0095389538 km 160621263524-11-2020 10:10 mapa
62 km S of Glacier View, Alaska 2.2 0083288328 km 160621249224-11-2020 10:08 mapa
10 km WNW of El Moro, Colorado 2.2 0084648464 km 160621134824-11-2020 09:49 mapa
22 km ENE of Honaunau-Napoopoo, Hawaii 2.2 01288412884 km 160621043624-11-2020 09:33 mapa
34 km SE of Mina, Nevada 3.0 0092319231 km 160620983924-11-2020 09:23 mapa
32 km S of False Pass, Alaska 2.8 0093239323 km 160620903824-11-2020 09:10 mapa
7 km ESE of Morgan, Utah 2.0 0086328632 km 160620733324-11-2020 08:42 mapa

569 earthquakes found. Click on location or map links for more details from the USGS


Mapa y datos son cortesía de Encuesta sobre geológica Estados Unidos

Guión original por  Saratoga-weather.org Adaptado para la plantilla por  Weerstation Leuven (version 3.21)

Te das cuenta de información de tiempo también en:

UK Metoffice

WeatherCloud

Weather Underground

Xert, Pla de la Font

AWEKAS

WeatherlinkIP

Citizen Weather Observer Program (CWOP)

HAMweather, WeatherForYou, PWS Weather

Equipo usamos:

Weather-station
Davis Vantage VUE

Weather-program
Davis Weatherlink.Com

Weather-server
My Computer

Proveedor
Hostinger

Davis Vantage VUE

Davis Weatherlink.Com

My Computer

Hostinger